• Join FlightAware (Why Join?)
  • Login
  • US Flag 
10:21AM EDT


 

Airport Tracker/Info


-or-


 

Live Flight TrackerFlight Track Log ✈ N762NC ✈ 25-Aug-2013 ✈ KLIT - KATL

Flight Track Log - Related Links

Times and Time Zones

All times are in EDT time to prevent confusion due to time zone crossing. See the N762NC flight status page for this flight to view local times or setup timezone preferences in your user account.

Time Position Orientation Groundspeed Altitude Reporting Facility
EDT Latitude Longitude Course Direction KTS MPH feet Rate Location/Type
07:08AM 34.7411 -92.2172 79° East 161 185 900  Level Memphis Center
07:09AM 34.7444 -92.1339 87° East 218 251 2,700 1,440 Climbing Memphis Center
07:10AM 34.7414 -92.0581 93° East 248 285 4,100 2,280 Climbing Memphis Center
07:11AM 34.7358 -91.7521 78° East  Level FlightAware Approximate
07:11AM 34.7425 -91.9619 89° East 280 322 7,300  Level Memphis Center
07:12AM 34.7566 -91.6271 78° East  Level FlightAware Approximate
07:12AM 34.7453 -91.9217 85° East 283 326 8,200  Level Memphis Center
07:13AM 34.7774 -91.5021 79° East  Level FlightAware Approximate
07:13AM 34.7422 -91.8281 92° East 278 320 10,500  Level Memphis Center
07:14AM 34.7456 -91.7117 88° East 304 350 12,200 2,280 Climbing Memphis Center
07:15AM 34.7572 -91.5958 83° East 336 387 15,100 2,400 Climbing Memphis Center
07:16AM 34.7708 -91.4744 82° East 357 411 17,100 1,980 Climbing Memphis Center
07:17AM 34.7886 -91.3533 80° East 362 417 19,100 1,920 Climbing Memphis Center
07:18AM 34.8061 -91.2247 81° East 377 434 21,000 1,800 Climbing Memphis Center
07:19AM 34.8364 -91.0858 75° East 382 440 22,700 1,740 Climbing Memphis Center
07:20AM 34.8642 -90.9594 75° East 382 440 24,500 1,500 Climbing Memphis Center
07:21AM 34.8875 -90.8231 78° East 394 453 25,800 1,440 Climbing Memphis Center
07:22AM 34.9131 -90.6889 77° East 399 459 27,400 1,260 Climbing Memphis Center
07:23AM 34.9383 -90.5522 77° East 412 474 28,400 780 Climbing Memphis Center
07:24AM 34.9553 -90.4053 82° East 420 483 29,000 300 Climbing Memphis Center
07:25AM 34.9781 -90.2583 79° East 435 501 29,000  Level Memphis Center
07:26AM 35.0031 -90.1136 78° East 440 506 29,000  Level Memphis Center
07:27AM 35.0089 -89.9819 87° East 440 506 29,000  Level Memphis Center
07:28AM 35.0000 -89.8322 94° East 434 499 29,000  Level Memphis Center
07:29AM 34.9722 -89.6806 103° East 449 517 29,000  Level Memphis Center
07:30AM 34.9419 -89.5211 103° East 449 517 29,000  Level Memphis Center
07:31AM 34.9200 -89.3769 100° East 439 505 29,000  Level Memphis Center
07:32AM 34.9000 -89.2328 100° East 431 496 29,000  Level Memphis Center
07:33AM 34.8819 -89.0839 98° East 431 496 29,000  Level Memphis Center
07:34AM 34.8572 -88.9425 102° East 431 496 29,000  Level Memphis Center
07:35AM 34.8306 -88.7961 102° East 431 496 29,000  Level Memphis Center
07:36AM 34.8081 -88.6650 102° East 431 496 29,000  Level Memphis Center
07:37AM 34.7831 -88.5239 102° East 431 496 29,000  Level Memphis Center
07:38AM 34.7558 -88.3831 103° East 431 496 29,000  Level Memphis Center
07:39AM 34.7303 -88.2344 102° East 437 503 29,000  Level Memphis Center
07:40AM 34.7047 -88.0811 101° East 453 521 29,000  Level Memphis Center
07:41AM 34.6811 -87.9350 101° East 453 521 29,000  Level Memphis Center
07:42AM 34.6550 -87.7844 102° East 453 521 29,000  Level Memphis Center
07:43AM 34.6286 -87.6211 101° East 446 513 29,000  Level Memphis Center
07:44AM 34.6044 -87.4756 101° East 446 513 29,000  Level Memphis Center
07:45AM 34.5725 -87.2553 100° East 464 534 29,000  Level Atlanta Center
07:46AM 34.5492 -87.1006 100° East 464 534 29,000  Level Atlanta Center
07:47AM 34.5256 -86.9558 101° East 458 527 29,000  Level Atlanta Center
07:48AM 34.5000 -86.8039 101° East 453 521 29,000  Level Atlanta Center
07:49AM 34.4761 -86.6519 101° East 453 521 29,000 -600 Level Atlanta Center
07:50AM 34.4500 -86.5000 102° East 453 521 27,800 -1,200 Descending Atlanta Center
07:51AM 34.4239 -86.3506 102° East 453 521 26,700 -1,200 Descending Atlanta Center
07:52AM 34.3972 -86.2014 102° East 448 516 25,500 -1,140 Descending Atlanta Center
07:53AM 34.3664 -86.0544 104° East 448 516 24,500 -900 Descending Atlanta Center
07:54AM 34.3394 -85.9081 103° East 448 516 23,700 -1,560 Descending Atlanta Center
07:55AM 34.3206 -85.7667 99° East 440 506 21,400 -1,980 Descending Atlanta Center
07:56AM 34.2892 -85.6328 106° East 417 480 19,800 -1,800 Descending Atlanta Center
07:57AM 34.2572 -85.5014 106° East 412 474 17,800 -1,680 Descending Atlanta Center
07:58AM 34.2253 -85.3878 109° East 401 461 16,500 -1,620 Descending Atlanta Center
07:59AM 34.1911 -85.2644 108° East 390 449 14,600 -1,200 Descending Atlanta Center
08:00AM 34.1711 -85.1536 102° East 360 414 14,100 -720 Descending Atlanta Center
08:01AM 34.1533 -85.0581 103° East 308 354 13,200 -600 Descending Atlanta Center
08:02AM 34.0847 -85.0019 146° Southeast 274 315 12,900 -1,200 Descending Atlanta Center
08:03AM 34.0036 -84.9683 161° South 290 334 10,800 -1,380 Descending Atlanta Center
08:04AM 33.9267 -84.9450 166° South 290 334 10,200 -780 Descending Atlanta Center
08:05AM 33.8558 -84.9294 170° South 273 314 9,300 -600 Descending Atlanta Center
08:06AM 33.7786 -84.9136 170° South 261 300 9,000 -600 Descending Atlanta Center
08:07AM 33.7097 -84.9003 171° South 256 295 8,100 -780 Descending Atlanta Center
08:08AM 33.6333 -84.8500 151° Southeast 198 228 7,200 -780 Descending Atlanta TRACON
08:09AM 33.6333 -84.7833 90° East 187 215 6,300 -840 Descending Atlanta TRACON
08:10AM 33.6333 -84.7333 90° East 175 201 5,600 -900 Descending Atlanta TRACON
08:11AM 33.6333 -84.6833 90° East 164 189 4,600 -900 Descending Atlanta TRACON
08:12AM 33.6333 -84.6167 90° East 159 183 3,800 -840 Descending Atlanta TRACON
08:13AM 33.6333 -84.5667 90° East 155 178 3,000 -840 Descending Atlanta TRACON
08:15AM 33.6333 -84.5167 90° East 130 150 2,100 -720 Descending Atlanta TRACON
08:16AM 33.6333 -84.4833 90° East 119 137 1,500 -600 Descending Atlanta TRACON